createdAt,value
2017-09-09T00:00:12.964Z,14.83
2017-09-09T00:02:42.122Z,13.73
2017-09-09T00:05:12.135Z,13.57
2017-09-09T00:07:42.054Z,13.00
2017-09-09T00:10:11.250Z,14.43
2017-09-09T00:12:40.491Z,12.70
2017-09-09T00:15:10.367Z,14.90
2017-09-09T00:17:48.381Z,14.77
2017-09-09T00:20:19.819Z,12.80
2017-09-09T00:22:48.577Z,12.57
2017-09-09T00:25:18.630Z,13.40
2017-09-09T00:27:48.106Z,12.53
2017-09-09T00:30:18.045Z,12.97
2017-09-09T00:32:48.178Z,13.80
2017-09-09T00:35:17.059Z,14.17
2017-09-09T00:37:46.293Z,13.20
2017-09-09T00:40:15.273Z,13.00
2017-09-09T00:42:45.370Z,14.23
2017-09-09T00:45:14.436Z,14.17
2017-09-09T00:47:43.354Z,13.60
2017-09-09T00:50:12.271Z,13.33
2017-09-09T00:52:42.381Z,14.07
2017-09-09T00:55:12.700Z,14.50
2017-09-09T00:57:41.831Z,15.00
2017-09-09T01:00:11.050Z,13.50
2017-09-09T01:02:40.798Z,14.80
2017-09-09T01:05:11.853Z,14.17
2017-09-09T01:07:41.671Z,13.77
2017-09-09T01:10:21.365Z,13.20
2017-09-09T01:13:03.105Z,13.70
2017-09-09T01:15:34.144Z,15.10
2017-09-09T01:18:03.349Z,15.77
2017-09-09T01:20:32.405Z,13.97
2017-09-09T01:23:02.075Z,13.93
2017-09-09T01:25:32.048Z,14.33
2017-09-09T01:28:02.334Z,14.97
2017-09-09T01:30:31.573Z,16.47
2017-09-09T01:33:01.348Z,14.30
2017-09-09T01:35:30.552Z,16.03
2017-09-09T01:37:59.475Z,15.27
2017-09-09T01:40:28.366Z,15.00
2017-09-09T01:43:00.730Z,14.57
2017-09-09T01:45:29.658Z,13.70
2017-09-09T01:47:58.826Z,14.50
2017-09-09T01:50:28.952Z,14.20
2017-09-09T01:52:58.861Z,13.97
2017-09-09T01:55:28.169Z,14.60
2017-09-09T01:57:58.085Z,14.50
2017-09-09T02:00:28.199Z,16.37
2017-09-09T02:02:58.111Z,14.80
2017-09-09T02:05:27.183Z,16.90
2017-09-09T02:07:56.304Z,15.00
2017-09-09T02:10:26.016Z,15.10
2017-09-09T02:12:55.109Z,15.20
2017-09-09T02:15:24.276Z,14.77
2017-09-09T02:17:53.299Z,14.30
2017-09-09T02:20:22.293Z,15.20
2017-09-09T02:22:51.211Z,13.90
2017-09-09T02:25:21.112Z,13.83
2017-09-09T02:27:50.417Z,13.80
2017-09-09T02:30:19.292Z,14.67
2017-09-09T02:32:48.310Z,15.60
2017-09-09T02:35:18.193Z,15.23
2017-09-09T02:37:47.095Z,13.70
2017-09-09T02:40:16.499Z,15.60
2017-09-09T02:42:45.407Z,14.30
2017-09-09T02:45:14.192Z,14.93
2017-09-09T02:47:43.284Z,14.40
2017-09-09T02:50:12.982Z,15.13
2017-09-09T02:52:41.972Z,14.13
2017-09-09T02:55:11.684Z,14.73
2017-09-09T02:57:40.524Z,14.13
2017-09-09T03:00:09.463Z,15.87
2017-09-09T03:02:38.559Z,14.10
2017-09-09T03:05:07.552Z,15.13
2017-09-09T03:07:36.445Z,14.70
2017-09-09T03:10:05.335Z,13.67
2017-09-09T03:12:34.427Z,14.63
2017-09-09T03:15:04.149Z,13.37
2017-09-09T03:17:33.861Z,14.90
2017-09-09T03:20:02.700Z,14.53
2017-09-09T03:22:31.867Z,14.33
2017-09-09T03:25:01.166Z,14.70
2017-09-09T03:27:29.943Z,14.07
2017-09-09T03:29:59.029Z,14.60
2017-09-09T03:32:28.070Z,15.30
2017-09-09T03:34:58.040Z,15.63
2017-09-09T03:37:27.748Z,14.27
2017-09-09T03:39:57.665Z,15.30
2017-09-09T03:42:26.559Z,15.83
2017-09-09T03:44:55.339Z,15.20
2017-09-09T03:47:24.229Z,14.50
2017-09-09T03:49:52.919Z,15.07
2017-09-09T03:52:21.711Z,15.33
2017-09-09T03:54:50.804Z,14.97
2017-09-09T03:57:19.905Z,15.03
2017-09-09T03:59:48.791Z,15.40
2017-09-09T04:02:17.681Z,17.37
2017-09-09T04:04:48.547Z,15.70
2017-09-09T04:07:18.659Z,15.77
2017-09-09T04:09:48.348Z,15.50
2017-09-09T04:12:17.855Z,16.30
2017-09-09T04:14:46.554Z,15.80
2017-09-09T04:17:15.535Z,15.00
2017-09-09T04:19:44.425Z,16.53
2017-09-09T04:22:13.328Z,16.17
2017-09-09T04:24:42.207Z,15.87
2017-09-09T04:27:10.992Z,16.37
2017-09-09T04:29:40.057Z,20.20
2017-09-09T04:32:09.391Z,15.93
2017-09-09T04:34:38.279Z,15.27
2017-09-09T04:37:07.251Z,16.83
2017-09-09T04:39:37.193Z,16.53
2017-09-09T04:42:06.592Z,16.27
2017-09-09T04:44:35.490Z,15.70
2017-09-09T04:47:04.375Z,16.40
2017-09-09T04:49:34.290Z,15.10
2017-09-09T04:52:03.304Z,15.40
2017-09-09T04:54:32.281Z,16.03
2017-09-09T04:57:01.990Z,16.00
2017-09-09T04:59:31.190Z,16.00
2017-09-09T05:02:00.192Z,15.73
2017-09-09T05:04:29.178Z,16.93
2017-09-09T05:06:59.401Z,16.63
2017-09-09T05:09:28.606Z,16.83
2017-09-09T05:11:57.601Z,16.60
2017-09-09T05:14:26.543Z,16.50
2017-09-09T05:16:56.255Z,16.20
2017-09-09T05:19:25.304Z,17.33
2017-09-09T05:21:54.277Z,16.70
2017-09-09T05:24:23.374Z,15.77
2017-09-09T05:26:52.265Z,17.87
2017-09-09T05:29:21.193Z,16.37
2017-09-09T05:31:50.222Z,16.70
2017-09-09T05:34:19.149Z,16.60
2017-09-09T05:36:48.286Z,16.23
2017-09-09T05:39:18.051Z,18.03
2017-09-09T05:41:47.970Z,16.90
2017-09-09T05:44:16.754Z,17.80
2017-09-09T05:46:45.746Z,17.67
2017-09-09T05:49:14.761Z,17.07
2017-09-09T05:51:43.734Z,17.77
2017-09-09T05:54:13.521Z,16.50
2017-09-09T05:56:42.338Z,18.07
2017-09-09T05:59:11.126Z,18.83
2017-09-09T06:01:39.828Z,18.10
2017-09-09T06:04:08.966Z,16.50
2017-09-09T06:06:38.002Z,17.40
2017-09-09T06:09:06.902Z,18.60
2017-09-09T06:11:35.786Z,18.33
2017-09-09T06:14:05.082Z,18.90
2017-09-09T06:16:34.717Z,16.80
2017-09-09T06:19:03.786Z,16.70
2017-09-09T06:21:32.884Z,16.50
2017-09-09T06:24:01.997Z,16.30
2017-09-09T06:26:31.178Z,16.57
2017-09-09T06:29:00.208Z,17.40
2017-09-09T06:31:30.498Z,16.07
2017-09-09T06:33:59.601Z,17.17
2017-09-09T06:36:28.482Z,19.37
2017-09-09T06:38:57.381Z,17.00
2017-09-09T06:41:27.246Z,15.60
2017-09-09T06:43:56.203Z,15.80
2017-09-09T06:46:25.072Z,16.40
2017-09-09T06:48:54.080Z,16.53
2017-09-09T06:51:23.782Z,15.47
2017-09-09T06:53:53.977Z,18.70
2017-09-09T06:56:23.614Z,16.30
2017-09-09T06:59:08.365Z,17.27
2017-09-09T07:01:37.258Z,18.13
2017-09-09T07:04:06.149Z,18.57
2017-09-09T07:06:35.241Z,16.93
2017-09-09T07:09:04.443Z,16.00
2017-09-09T07:11:33.339Z,16.90
2017-09-09T07:14:02.429Z,17.43
2017-09-09T07:16:31.323Z,17.97
2017-09-09T07:19:00.536Z,17.53
2017-09-09T07:21:30.229Z,18.40
2017-09-09T07:24:00.277Z,18.43
2017-09-09T07:26:29.355Z,15.87
2017-09-09T07:28:58.341Z,18.67
2017-09-09T07:31:27.504Z,17.30
2017-09-09T07:33:56.540Z,17.27
2017-09-09T07:36:25.518Z,20.17
2017-09-09T07:38:54.822Z,17.13
2017-09-09T07:41:23.715Z,19.20
2017-09-09T07:43:53.427Z,16.37
2017-09-09T07:46:22.314Z,17.60
2017-09-09T07:48:51.296Z,17.13
2017-09-09T07:51:20.475Z,17.50
2017-09-09T07:53:49.499Z,19.70
2017-09-09T07:56:18.828Z,17.33
2017-09-09T07:58:48.183Z,21.47
2017-09-09T08:01:17.100Z,16.93
2017-09-09T08:03:46.808Z,17.67
2017-09-09T08:06:15.811Z,16.17
2017-09-09T08:08:45.216Z,16.20
2017-09-09T08:11:14.269Z,16.80
2017-09-09T08:13:43.387Z,43.67
2017-09-09T08:16:12.590Z,19.43
2017-09-09T08:18:43.215Z,16.50
2017-09-09T08:21:15.303Z,17.83
2017-09-09T08:23:44.588Z,17.73
2017-09-09T08:26:13.582Z,17.13
2017-09-09T08:28:43.023Z,15.80
2017-09-09T08:31:12.408Z,15.60
2017-09-09T08:33:42.320Z,17.13
2017-09-09T08:36:12.968Z,14.10
2017-09-09T08:38:42.491Z,13.27
2017-09-09T08:41:11.989Z,14.87
2017-09-09T08:43:44.566Z,15.90
2017-09-09T08:46:14.801Z,15.17
2017-09-09T08:48:45.453Z,17.00
2017-09-09T08:51:18.316Z,15.27
2017-09-09T08:53:48.019Z,15.13
2017-09-09T08:56:17.198Z,16.97
2017-09-09T08:58:47.102Z,15.50
2017-09-09T09:01:16.393Z,15.37
2017-09-09T09:03:46.869Z,14.43
2017-09-09T09:06:19.507Z,15.10
2017-09-09T09:08:49.728Z,14.97
2017-09-09T09:11:18.710Z,13.60
2017-09-09T09:13:47.811Z,14.93
2017-09-09T09:16:17.592Z,15.87
2017-09-09T09:18:46.903Z,16.07
2017-09-09T09:21:16.446Z,15.03
2017-09-09T09:23:45.727Z,15.30
2017-09-09T09:26:14.901Z,15.63
2017-09-09T09:28:45.410Z,19.80
2017-09-09T09:31:16.370Z,16.57
2017-09-09T09:33:45.710Z,14.37
2017-09-09T09:36:14.748Z,14.93
2017-09-09T09:38:44.185Z,14.40
2017-09-09T09:41:14.105Z,14.63
2017-09-09T09:43:43.568Z,14.53
2017-09-09T09:46:12.708Z,15.77
2017-09-09T09:48:43.180Z,15.77
2017-09-09T09:51:12.638Z,14.77
2017-09-09T09:53:42.957Z,15.97
2017-09-09T09:56:12.474Z,14.67
2017-09-09T09:58:42.194Z,14.07
2017-09-09T10:01:11.362Z,14.40
2017-09-09T10:03:40.321Z,13.47
2017-09-09T10:06:09.202Z,13.90
2017-09-09T10:08:38.361Z,13.03
2017-09-09T10:11:07.597Z,13.70
2017-09-09T10:13:36.424Z,14.37
2017-09-09T10:16:06.474Z,12.53
2017-09-09T10:18:36.406Z,13.43
2017-09-09T10:21:06.149Z,12.77
2017-09-09T10:23:35.913Z,12.03
2017-09-09T10:26:06.330Z,12.60
2017-09-09T10:28:37.069Z,13.13
2017-09-09T10:31:06.532Z,13.43
2017-09-09T10:33:37.107Z,13.00
2017-09-09T10:36:07.012Z,13.37
2017-09-09T10:38:37.156Z,13.00
2017-09-09T10:41:06.232Z,13.20
2017-09-09T10:43:36.303Z,13.97
2017-09-09T10:46:06.531Z,14.97
2017-09-09T10:48:36.400Z,13.47
2017-09-09T10:51:05.570Z,13.23
2017-09-09T10:53:34.776Z,13.30
2017-09-09T10:56:03.986Z,13.53
2017-09-09T10:58:35.608Z,14.40
2017-09-09T11:01:07.366Z,13.47
2017-09-09T11:03:38.436Z,14.97
2017-09-09T11:06:09.722Z,14.70
2017-09-09T11:08:38.922Z,15.33
2017-09-09T11:11:08.462Z,16.50
2017-09-09T11:13:38.761Z,15.67
2017-09-09T11:16:07.827Z,15.43
2017-09-09T11:18:37.416Z,17.57
2017-09-09T11:21:06.529Z,15.03
2017-09-09T11:23:38.112Z,14.07
2017-09-09T11:26:08.161Z,13.40
2017-09-09T11:28:37.825Z,12.20
2017-09-09T11:31:07.597Z,11.73
2017-09-09T11:33:36.820Z,11.80
2017-09-09T11:36:06.251Z,12.20
2017-09-09T11:38:35.411Z,10.63
2017-09-09T11:41:06.202Z,9.80
2017-09-09T11:43:35.731Z,11.20
2017-09-09T11:46:05.758Z,10.70
2017-09-09T11:48:34.759Z,9.37
2017-09-09T11:51:04.670Z,10.10
2017-09-09T11:53:35.165Z,8.07
2017-09-09T11:56:04.772Z,9.50
2017-09-09T11:58:33.900Z,9.43
2017-09-09T12:01:03.261Z,7.40
2017-09-09T12:03:32.503Z,8.20
2017-09-09T12:06:02.987Z,9.17
2017-09-09T12:08:32.044Z,9.67
2017-09-09T12:11:02.665Z,10.17
2017-09-09T12:13:32.099Z,10.90
2017-09-09T12:16:02.859Z,9.97
2017-09-09T12:18:33.381Z,13.17
2017-09-09T12:21:02.856Z,13.93
2017-09-09T12:23:31.951Z,11.33
2017-09-09T12:26:01.518Z,12.53
2017-09-09T12:28:31.357Z,15.30
2017-09-09T12:31:01.456Z,15.30
2017-09-09T12:33:31.525Z,14.10
2017-09-09T12:36:00.907Z,16.50
2017-09-09T12:38:30.687Z,19.30
2017-09-09T12:41:00.224Z,19.30
2017-09-09T12:43:29.798Z,20.23
2017-09-09T12:45:59.441Z,18.60
2017-09-09T12:48:28.202Z,19.27
2017-09-09T12:50:58.313Z,19.30
2017-09-09T12:53:27.270Z,18.20
2017-09-09T12:55:57.225Z,18.97
2017-09-09T12:58:26.160Z,23.77
2017-09-09T13:00:56.187Z,19.07
2017-09-09T13:03:25.731Z,18.20
2017-09-09T13:05:54.807Z,21.43
2017-09-09T13:08:24.787Z,19.00
2017-09-09T13:10:53.647Z,17.60
2017-09-09T13:13:22.507Z,17.33
2017-09-09T13:15:51.493Z,18.00
2017-09-09T13:18:23.192Z,18.30
2017-09-09T13:20:55.189Z,19.57
2017-09-09T13:23:26.534Z,16.73
2017-09-09T13:25:56.864Z,16.73
2017-09-09T13:28:26.973Z,14.90
2017-09-09T13:30:56.842Z,14.63
2017-09-09T13:33:25.958Z,16.00
2017-09-09T13:35:55.403Z,17.80
2017-09-09T13:38:24.875Z,15.30
2017-09-09T13:40:55.016Z,16.97
2017-09-09T13:43:24.204Z,17.80
2017-09-09T13:45:53.539Z,17.80
2017-09-09T13:48:23.358Z,18.03
2017-09-09T13:50:52.478Z,16.20
2017-09-09T13:53:21.803Z,13.67
2017-09-09T13:55:50.707Z,14.00
2017-09-09T13:58:21.004Z,12.13
2017-09-09T14:00:50.395Z,14.50
2017-09-09T14:03:19.863Z,11.20
2017-09-09T14:05:49.897Z,11.17
2017-09-09T14:08:19.199Z,10.90
2017-09-09T14:10:48.290Z,11.70
2017-09-09T14:13:20.836Z,12.00
2017-09-09T14:15:49.964Z,11.77
2017-09-09T14:18:21.268Z,11.73
2017-09-09T14:20:50.768Z,10.53
2017-09-09T14:23:21.590Z,10.80
2017-09-09T14:25:53.013Z,15.40
2017-09-09T14:28:23.050Z,9.37
2017-09-09T14:30:52.732Z,10.17
2017-09-09T14:33:22.050Z,9.00
2017-09-09T14:35:53.859Z,11.00
2017-09-09T14:38:24.333Z,9.63
2017-09-09T14:40:53.671Z,9.93
2017-09-09T14:43:27.902Z,13.60
2017-09-09T14:46:00.192Z,9.30
2017-09-09T14:48:33.198Z,9.43
2017-09-09T14:51:02.365Z,8.20
2017-09-09T14:53:33.595Z,8.17
2017-09-09T14:56:04.627Z,8.40
2017-09-09T14:58:34.304Z,8.97
2017-09-09T15:01:07.202Z,9.03
2017-09-09T15:03:42.413Z,8.97
2017-09-09T15:06:13.459Z,8.80
2017-09-09T15:08:46.209Z,8.03
2017-09-09T15:11:21.995Z,9.10
2017-09-09T15:13:56.623Z,9.00
2017-09-09T15:16:28.945Z,9.13
2017-09-09T15:18:59.060Z,9.00
2017-09-09T15:21:30.022Z,9.90
2017-09-09T15:24:02.465Z,10.20
2017-09-09T15:26:32.510Z,9.73
2017-09-09T15:29:06.647Z,9.73
2017-09-09T15:31:37.296Z,13.07
2017-09-09T15:34:09.988Z,9.43
2017-09-09T15:36:40.568Z,9.50
2017-09-09T15:39:10.329Z,10.30
2017-09-09T15:41:42.079Z,9.73
2017-09-09T15:44:13.538Z,11.50
2017-09-09T15:46:42.619Z,55.97
2017-09-09T15:49:12.037Z,12.97
2017-09-09T15:51:41.370Z,10.90
2017-09-09T15:54:10.535Z,12.00
2017-09-09T15:56:41.380Z,11.73
2017-09-09T15:59:11.085Z,11.50
2017-09-09T16:01:40.523Z,13.37
2017-09-09T16:04:11.265Z,12.47
2017-09-09T16:06:42.483Z,10.83
2017-09-09T16:09:12.290Z,10.97
2017-09-09T16:11:41.481Z,8.00
2017-09-09T16:14:10.894Z,8.77
2017-09-09T16:16:40.850Z,9.90
2017-09-09T16:19:11.200Z,10.03
2017-09-09T16:21:40.576Z,9.00
2017-09-09T16:24:09.765Z,9.30
2017-09-09T16:26:40.090Z,8.50
2017-09-09T16:29:09.699Z,11.00
2017-09-09T16:31:39.017Z,9.20
2017-09-09T16:34:09.770Z,8.70
2017-09-09T16:36:40.501Z,9.57
2017-09-09T16:39:09.962Z,8.60
2017-09-09T16:41:40.084Z,8.20
2017-09-09T16:44:09.746Z,7.80
2017-09-09T16:46:42.534Z,6.83
2017-09-09T16:49:11.989Z,8.07
2017-09-09T16:51:42.393Z,9.30
2017-09-09T16:54:12.521Z,6.80
2017-09-09T16:56:42.809Z,7.97
2017-09-09T16:59:15.378Z,6.97
2017-09-09T17:01:46.372Z,7.93
2017-09-09T17:04:15.544Z,7.60
2017-09-09T17:06:45.328Z,8.10
2017-09-09T17:09:15.141Z,8.70
2017-09-09T17:11:46.288Z,10.63
2017-09-09T17:14:16.265Z,9.70
2017-09-09T17:16:47.391Z,11.17
2017-09-09T17:19:17.415Z,12.00
2017-09-09T17:21:53.287Z,11.40
2017-09-09T17:24:22.836Z,10.90
2017-09-09T17:26:52.215Z,10.53
2017-09-09T17:29:22.780Z,9.70
2017-09-09T17:31:52.034Z,10.00
2017-09-09T17:34:21.600Z,10.70
2017-09-09T17:36:51.839Z,8.60
2017-09-09T17:39:21.395Z,9.40
2017-09-09T17:41:51.933Z,8.20
2017-09-09T17:44:21.351Z,7.80
2017-09-09T17:46:50.452Z,8.23
2017-09-09T17:49:19.938Z,7.17
2017-09-09T17:51:50.308Z,7.20
2017-09-09T17:54:20.433Z,7.43
2017-09-09T17:56:50.299Z,6.90
2017-09-09T17:59:20.320Z,8.53
2017-09-09T18:01:50.378Z,6.80
2017-09-09T18:04:19.669Z,7.57
2017-09-09T18:06:48.939Z,6.70
2017-09-09T18:09:18.552Z,7.30
2017-09-09T18:11:47.620Z,6.80
2017-09-09T18:14:16.662Z,7.23
2017-09-09T18:16:46.196Z,7.33
2017-09-09T18:19:15.512Z,5.97
2017-09-09T18:21:44.810Z,6.10
2017-09-09T18:24:14.246Z,7.50
2017-09-09T18:26:43.735Z,6.67
2017-09-09T18:29:13.054Z,5.93
2017-09-09T18:31:42.427Z,6.07
2017-09-09T18:34:12.623Z,6.20
2017-09-09T18:36:43.490Z,5.87
2017-09-09T18:39:13.454Z,5.57
2017-09-09T18:41:43.396Z,6.07
2017-09-09T18:44:14.296Z,5.90
2017-09-09T18:46:45.342Z,5.77
2017-09-09T18:49:15.004Z,5.63
2017-09-09T18:51:44.318Z,6.07
2017-09-09T18:54:13.176Z,6.10
2017-09-09T18:56:42.897Z,8.27
2017-09-09T18:59:12.786Z,6.70
2017-09-09T19:01:42.456Z,6.37
2017-09-09T19:04:11.925Z,7.17
2017-09-09T19:06:42.383Z,6.80
2017-09-09T19:09:11.570Z,6.30
2017-09-09T19:11:41.456Z,6.70
2017-09-09T19:14:10.986Z,5.97
2017-09-09T19:16:41.836Z,6.93
2017-09-09T19:19:11.120Z,5.30
2017-09-09T19:21:41.237Z,4.03
2017-09-09T19:24:11.021Z,6.27
2017-09-09T19:26:41.641Z,6.53
2017-09-09T19:29:12.000Z,5.07
2017-09-09T19:31:41.075Z,4.60
2017-09-09T19:34:10.860Z,4.03
2017-09-09T19:36:40.066Z,5.37
2017-09-09T19:39:09.685Z,5.87
2017-09-09T19:41:38.934Z,4.73
2017-09-09T19:44:08.032Z,6.27
2017-09-09T19:46:37.065Z,7.20
2017-09-09T19:49:06.985Z,6.07
2017-09-09T19:51:36.270Z,6.03
2017-09-09T19:54:05.759Z,5.23
2017-09-09T19:56:34.887Z,7.73
2017-09-09T19:59:04.279Z,8.97
2017-09-09T20:01:34.186Z,7.37
2017-09-09T20:04:04.946Z,5.97
2017-09-09T20:06:34.647Z,4.97
2017-09-09T20:09:03.936Z,6.00
2017-09-09T20:11:33.076Z,6.63
2017-09-09T20:14:02.552Z,6.53
2017-09-09T20:16:31.601Z,6.67
2017-09-09T20:19:01.080Z,6.77
2017-09-09T20:21:30.249Z,7.63
2017-09-09T20:23:59.242Z,7.70
2017-09-09T20:26:28.300Z,8.57
2017-09-09T20:28:57.313Z,6.40
2017-09-09T20:31:26.853Z,6.47
2017-09-09T20:33:56.311Z,6.10
2017-09-09T20:36:25.763Z,8.90
2017-09-09T20:38:54.898Z,5.30
2017-09-09T20:41:24.060Z,5.23
2017-09-09T20:43:53.343Z,5.70
2017-09-09T20:46:23.272Z,8.70
2017-09-09T20:48:52.408Z,8.53
2017-09-09T20:51:22.225Z,6.60
2017-09-09T20:53:51.628Z,7.23
2017-09-09T20:56:20.941Z,5.90
2017-09-09T20:58:51.368Z,5.37
2017-09-09T21:01:20.818Z,6.23
2017-09-09T21:03:50.268Z,4.70
2017-09-09T21:06:19.640Z,6.87
2017-09-09T21:08:49.112Z,6.13
2017-09-09T21:11:19.198Z,5.17
2017-09-09T21:13:48.443Z,5.27
2017-09-09T21:16:17.811Z,5.67
2017-09-09T21:18:48.161Z,5.53
2017-09-09T21:21:18.484Z,5.77
2017-09-09T21:23:48.777Z,5.40
2017-09-09T21:26:19.237Z,5.83
2017-09-09T21:28:48.855Z,5.30
2017-09-09T21:31:19.518Z,5.93
2017-09-09T21:33:48.941Z,4.40
2017-09-09T21:36:18.195Z,4.60
2017-09-09T21:38:47.630Z,4.60
2017-09-09T21:41:17.130Z,5.27
2017-09-09T21:43:46.705Z,9.30
2017-09-09T21:46:16.464Z,4.50
2017-09-09T21:48:45.491Z,3.90
2017-09-09T21:51:18.115Z,4.70
2017-09-09T21:53:47.560Z,4.67
2017-09-09T21:56:18.766Z,5.20
2017-09-09T21:58:47.678Z,4.77
2017-09-09T22:01:17.003Z,4.63
2017-09-09T22:03:47.079Z,4.70
2017-09-09T22:06:16.662Z,4.20
2017-09-09T22:08:46.265Z,4.10
2017-09-09T22:11:15.344Z,4.43
2017-09-09T22:13:44.875Z,5.20
2017-09-09T22:16:14.566Z,3.97
2017-09-09T22:18:44.889Z,4.60
2017-09-09T22:21:14.465Z,5.67
2017-09-09T22:23:43.600Z,4.17
2017-09-09T22:26:13.117Z,4.33
2017-09-09T22:28:42.635Z,8.90
2017-09-09T22:31:11.901Z,4.43
2017-09-09T22:33:43.344Z,4.50
2017-09-09T22:36:13.555Z,3.97
2017-09-09T22:38:43.572Z,3.83
2017-09-09T22:41:13.929Z,4.30
2017-09-09T22:43:42.886Z,4.27
2017-09-09T22:46:11.903Z,5.50
2017-09-09T22:48:41.220Z,5.23
2017-09-09T22:51:10.722Z,4.60
2017-09-09T22:53:40.196Z,6.00
2017-09-09T22:56:09.760Z,4.30
2017-09-09T22:58:39.032Z,4.20
2017-09-09T23:01:08.304Z,6.10
2017-09-09T23:03:38.575Z,4.57
2017-09-09T23:06:07.746Z,4.40
2017-09-09T23:08:37.041Z,5.63
2017-09-09T23:11:06.342Z,5.00
2017-09-09T23:13:35.437Z,5.90
2017-09-09T23:16:04.685Z,4.70
2017-09-09T23:18:33.688Z,4.00
2017-09-09T23:21:03.351Z,6.30
2017-09-09T23:23:33.414Z,5.50
2017-09-09T23:26:02.507Z,5.67
2017-09-09T23:28:31.799Z,8.40
2017-09-09T23:31:01.063Z,4.30
2017-09-09T23:33:30.060Z,5.97
2017-09-09T23:35:59.393Z,4.13
2017-09-09T23:38:28.492Z,4.80
2017-09-09T23:40:57.643Z,4.07
2017-09-09T23:43:27.968Z,5.90
2017-09-09T23:45:57.247Z,4.33
2017-09-09T23:48:26.775Z,4.47
2017-09-09T23:50:56.732Z,3.67
2017-09-09T23:53:26.503Z,4.20
2017-09-09T23:55:55.395Z,4.63
2017-09-09T23:58:24.686Z,4.80
